sensor_id;sensor_type;location;lat;lon;timestamp;P1;durP1;ratioP1;P2;durP2;ratioP2
61407;SDS011;47274;43.054;25.146;2023-02-19T00:01:40;7.18;;;3.40;;
61407;SDS011;47274;43.054;25.146;2023-02-19T00:04:12;5.85;;;3.10;;
61407;SDS011;47274;43.054;25.146;2023-02-19T00:06:42;5.90;;;3.10;;
61407;SDS011;47274;43.054;25.146;2023-02-19T00:09:10;7.65;;;3.20;;
61407;SDS011;47274;43.054;25.146;2023-02-19T00:11:37;6.60;;;3.33;;
61407;SDS011;47274;43.054;25.146;2023-02-19T00:14:04;6.80;;;3.28;;
61407;SDS011;47274;43.054;25.146;2023-02-19T00:16:31;6.55;;;3.20;;
61407;SDS011;47274;43.054;25.146;2023-02-19T00:19:00;8.07;;;3.40;;
61407;SDS011;47274;43.054;25.146;2023-02-19T00:21:27;7.65;;;3.33;;
61407;SDS011;47274;43.054;25.146;2023-02-19T00:23:55;4.82;;;3.00;;
61407;SDS011;47274;43.054;25.146;2023-02-19T00:26:27;6.95;;;3.20;;
61407;SDS011;47274;43.054;25.146;2023-02-19T00:28:53;9.07;;;3.33;;
61407;SDS011;47274;43.054;25.146;2023-02-19T00:33:46;7.03;;;3.13;;
61407;SDS011;47274;43.054;25.146;2023-02-19T00:36:13;7.38;;;2.97;;
61407;SDS011;47274;43.054;25.146;2023-02-19T00:38:40;5.07;;;3.28;;
61407;SDS011;47274;43.054;25.146;2023-02-19T00:41:07;5.07;;;3.03;;
61407;SDS011;47274;43.054;25.146;2023-02-19T00:44:02;6.20;;;3.45;;
61407;SDS011;47274;43.054;25.146;2023-02-19T00:46:34;4.78;;;3.08;;
61407;SDS011;47274;43.054;25.146;2023-02-19T00:49:02;6.20;;;3.08;;
61407;SDS011;47274;43.054;25.146;2023-02-19T00:51:32;5.35;;;3.40;;
61407;SDS011;47274;43.054;25.146;2023-02-19T00:53:59;7.80;;;3.30;;
61407;SDS011;47274;43.054;25.146;2023-02-19T00:56:26;6.80;;;3.10;;
61407;SDS011;47274;43.054;25.146;2023-02-19T00:58:55;5.70;;;3.35;;
61407;SDS011;47274;43.054;25.146;2023-02-19T01:01:22;5.57;;;3.10;;
61407;SDS011;47274;43.054;25.146;2023-02-19T01:03:49;7.18;;;3.30;;
61407;SDS011;47274;43.054;25.146;2023-02-19T01:06:16;8.07;;;3.25;;
61407;SDS011;47274;43.054;25.146;2023-02-19T01:08:43;6.68;;;3.20;;
61407;SDS011;47274;43.054;25.146;2023-02-19T01:11:09;6.43;;;3.28;;
61407;SDS011;47274;43.054;25.146;2023-02-19T01:13:35;7.25;;;3.90;;
61407;SDS011;47274;43.054;25.146;2023-02-19T01:16:05;8.23;;;3.42;;
61407;SDS011;47274;43.054;25.146;2023-02-19T01:18:33;8.80;;;3.53;;
61407;SDS011;47274;43.054;25.146;2023-02-19T01:21:06;4.88;;;3.20;;
61407;SDS011;47274;43.054;25.146;2023-02-19T01:23:35;6.57;;;3.55;;
61407;SDS011;47274;43.054;25.146;2023-02-19T01:26:04;5.93;;;3.50;;
61407;SDS011;47274;43.054;25.146;2023-02-19T01:28:31;5.97;;;3.10;;
61407;SDS011;47274;43.054;25.146;2023-02-19T01:31:01;6.55;;;3.50;;
61407;SDS011;47274;43.054;25.146;2023-02-19T01:33:28;6.97;;;3.28;;
61407;SDS011;47274;43.054;25.146;2023-02-19T01:35:54;6.20;;;3.42;;
61407;SDS011;47274;43.054;25.146;2023-02-19T01:38:21;8.32;;;3.72;;
61407;SDS011;47274;43.054;25.146;2023-02-19T01:40:54;6.22;;;3.70;;
61407;SDS011;47274;43.054;25.146;2023-02-19T01:43:21;8.30;;;3.55;;
61407;SDS011;47274;43.054;25.146;2023-02-19T01:45:46;9.57;;;3.40;;
61407;SDS011;47274;43.054;25.146;2023-02-19T01:48:20;7.13;;;3.35;;
61407;SDS011;47274;43.054;25.146;2023-02-19T01:50:52;6.47;;;3.08;;
61407;SDS011;47274;43.054;25.146;2023-02-19T01:53:23;5.70;;;3.33;;
61407;SDS011;47274;43.054;25.146;2023-02-19T01:55:52;7.85;;;3.60;;
61407;SDS011;47274;43.054;25.146;2023-02-19T01:58:23;7.30;;;3.25;;
61407;SDS011;47274;43.054;25.146;2023-02-19T02:00:50;6.65;;;3.50;;
61407;SDS011;47274;43.054;25.146;2023-02-19T02:03:17;7.22;;;3.25;;
61407;SDS011;47274;43.054;25.146;2023-02-19T02:08:50;6.85;;;3.35;;
61407;SDS011;47274;43.054;25.146;2023-02-19T02:11:36;7.35;;;3.75;;
61407;SDS011;47274;43.054;25.146;2023-02-19T02:14:05;7.05;;;3.40;;
61407;SDS011;47274;43.054;25.146;2023-02-19T02:22:27;8.45;;;4.07;;
61407;SDS011;47274;43.054;25.146;2023-02-19T02:30:49;9.52;;;3.95;;
61407;SDS011;47274;43.054;25.146;2023-02-19T02:36:05;7.53;;;4.10;;
61407;SDS011;47274;43.054;25.146;2023-02-19T02:38:34;8.60;;;3.73;;
61407;SDS011;47274;43.054;25.146;2023-02-19T02:41:02;7.95;;;3.72;;
61407;SDS011;47274;43.054;25.146;2023-02-19T02:43:30;8.80;;;3.97;;
61407;SDS011;47274;43.054;25.146;2023-02-19T02:45:56;9.18;;;4.20;;
61407;SDS011;47274;43.054;25.146;2023-02-19T02:53:40;8.50;;;4.28;;
61407;SDS011;47274;43.054;25.146;2023-02-19T02:56:45;9.88;;;3.95;;
61407;SDS011;47274;43.054;25.146;2023-02-19T02:59:14;10.73;;;4.75;;
61407;SDS011;47274;43.054;25.146;2023-02-19T03:01:54;10.35;;;4.70;;
61407;SDS011;47274;43.054;25.146;2023-02-19T03:07:42;9.43;;;4.57;;
61407;SDS011;47274;43.054;25.146;2023-02-19T03:10:16;11.50;;;4.70;;
61407;SDS011;47274;43.054;25.146;2023-02-19T03:12:48;10.85;;;4.40;;
61407;SDS011;47274;43.054;25.146;2023-02-19T03:15:37;10.15;;;4.65;;
61407;SDS011;47274;43.054;25.146;2023-02-19T03:18:26;10.80;;;4.40;;
61407;SDS011;47274;43.054;25.146;2023-02-19T03:21:18;9.75;;;4.40;;
61407;SDS011;47274;43.054;25.146;2023-02-19T03:23:46;13.48;;;5.22;;
61407;SDS011;47274;43.054;25.146;2023-02-19T03:26:31;12.32;;;5.25;;
61407;SDS011;47274;43.054;25.146;2023-02-19T03:28:59;12.63;;;5.32;;
61407;SDS011;47274;43.054;25.146;2023-02-19T03:31:46;15.35;;;6.05;;
61407;SDS011;47274;43.054;25.146;2023-02-19T03:34:20;13.35;;;5.72;;
61407;SDS011;47274;43.054;25.146;2023-02-19T03:36:55;12.60;;;5.55;;
61407;SDS011;47274;43.054;25.146;2023-02-19T03:39:26;12.45;;;5.15;;
61407;SDS011;47274;43.054;25.146;2023-02-19T03:47:18;14.68;;;5.80;;
61407;SDS011;47274;43.054;25.146;2023-02-19T03:49:56;13.10;;;5.47;;
61407;SDS011;47274;43.054;25.146;2023-02-19T03:58:13;14.07;;;5.68;;
61407;SDS011;47274;43.054;25.146;2023-02-19T04:00:48;15.50;;;6.30;;
61407;SDS011;47274;43.054;25.146;2023-02-19T04:06:16;14.40;;;5.95;;
61407;SDS011;47274;43.054;25.146;2023-02-19T04:08:52;14.38;;;5.95;;
61407;SDS011;47274;43.054;25.146;2023-02-19T04:11:22;13.85;;;5.78;;
61407;SDS011;47274;43.054;25.146;2023-02-19T04:16:37;13.93;;;6.00;;
61407;SDS011;47274;43.054;25.146;2023-02-19T04:19:11;16.25;;;6.18;;
61407;SDS011;47274;43.054;25.146;2023-02-19T04:21:39;15.93;;;6.60;;
61407;SDS011;47274;43.054;25.146;2023-02-19T04:24:09;14.90;;;6.18;;
61407;SDS011;47274;43.054;25.146;2023-02-19T04:26:39;16.60;;;6.53;;
61407;SDS011;47274;43.054;25.146;2023-02-19T04:29:06;15.52;;;6.20;;
61407;SDS011;47274;43.054;25.146;2023-02-19T04:31:31;15.43;;;6.85;;
61407;SDS011;47274;43.054;25.146;2023-02-19T04:34:00;13.73;;;5.78;;
61407;SDS011;47274;43.054;25.146;2023-02-19T04:36:28;14.85;;;6.13;;
61407;SDS011;47274;43.054;25.146;2023-02-19T04:38:56;17.67;;;6.90;;
61407;SDS011;47274;43.054;25.146;2023-02-19T04:41:22;19.05;;;7.63;;
61407;SDS011;47274;43.054;25.146;2023-02-19T04:43:48;16.55;;;6.75;;
61407;SDS011;47274;43.054;25.146;2023-02-19T04:46:13;24.15;;;9.80;;
61407;SDS011;47274;43.054;25.146;2023-02-19T04:48:39;15.32;;;6.10;;
61407;SDS011;47274;43.054;25.146;2023-02-19T04:51:07;22.00;;;7.80;;
61407;SDS011;47274;43.054;25.146;2023-02-19T04:53:34;14.68;;;5.80;;
61407;SDS011;47274;43.054;25.146;2023-02-19T04:56:07;19.25;;;7.60;;
61407;SDS011;47274;43.054;25.146;2023-02-19T04:58:35;16.50;;;6.57;;
61407;SDS011;47274;43.054;25.146;2023-02-19T05:01:01;15.10;;;6.22;;
61407;SDS011;47274;43.054;25.146;2023-02-19T05:03:27;15.00;;;6.00;;
61407;SDS011;47274;43.054;25.146;2023-02-19T05:05:53;15.80;;;6.82;;
61407;SDS011;47274;43.054;25.146;2023-02-19T05:08:19;13.73;;;6.25;;
61407;SDS011;47274;43.054;25.146;2023-02-19T05:10:45;14.10;;;6.20;;
61407;SDS011;47274;43.054;25.146;2023-02-19T05:13:10;14.32;;;5.80;;
61407;SDS011;47274;43.054;25.146;2023-02-19T05:15:36;15.90;;;6.55;;
61407;SDS011;47274;43.054;25.146;2023-02-19T05:18:02;15.02;;;6.25;;
61407;SDS011;47274;43.054;25.146;2023-02-19T05:20:28;17.13;;;6.35;;
61407;SDS011;47274;43.054;25.146;2023-02-19T05:22:55;15.48;;;6.28;;
61407;SDS011;47274;43.054;25.146;2023-02-19T05:25:21;12.93;;;5.75;;
61407;SDS011;47274;43.054;25.146;2023-02-19T05:27:47;13.18;;;5.95;;
61407;SDS011;47274;43.054;25.146;2023-02-19T05:30:13;16.77;;;6.20;;
61407;SDS011;47274;43.054;25.146;2023-02-19T05:32:39;14.05;;;6.00;;
61407;SDS011;47274;43.054;25.146;2023-02-19T05:35:04;13.90;;;6.03;;
61407;SDS011;47274;43.054;25.146;2023-02-19T05:37:31;15.60;;;6.82;;
61407;SDS011;47274;43.054;25.146;2023-02-19T05:39:56;14.57;;;6.30;;
61407;SDS011;47274;43.054;25.146;2023-02-19T05:42:22;12.55;;;5.65;;
61407;SDS011;47274;43.054;25.146;2023-02-19T05:44:48;16.40;;;6.93;;
61407;SDS011;47274;43.054;25.146;2023-02-19T05:47:14;12.43;;;5.97;;
61407;SDS011;47274;43.054;25.146;2023-02-19T05:49:40;16.52;;;6.88;;
61407;SDS011;47274;43.054;25.146;2023-02-19T05:52:05;13.77;;;6.57;;
61407;SDS011;47274;43.054;25.146;2023-02-19T05:54:32;13.43;;;6.05;;
61407;SDS011;47274;43.054;25.146;2023-02-19T05:56:58;15.23;;;5.68;;
61407;SDS011;47274;43.054;25.146;2023-02-19T05:59:25;12.88;;;5.30;;
61407;SDS011;47274;43.054;25.146;2023-02-19T06:01:53;22.75;;;7.03;;
61407;SDS011;47274;43.054;25.146;2023-02-19T06:04:19;12.95;;;5.65;;
61407;SDS011;47274;43.054;25.146;2023-02-19T06:06:46;14.70;;;5.43;;
61407;SDS011;47274;43.054;25.146;2023-02-19T06:09:12;18.58;;;8.60;;
61407;SDS011;47274;43.054;25.146;2023-02-19T06:11:38;16.70;;;6.70;;
61407;SDS011;47274;43.054;25.146;2023-02-19T06:14:05;12.13;;;5.85;;
61407;SDS011;47274;43.054;25.146;2023-02-19T06:16:31;14.13;;;6.07;;
61407;SDS011;47274;43.054;25.146;2023-02-19T06:19:00;11.02;;;5.10;;
61407;SDS011;47274;43.054;25.146;2023-02-19T06:21:28;14.13;;;5.53;;
61407;SDS011;47274;43.054;25.146;2023-02-19T06:23:56;11.65;;;5.20;;
61407;SDS011;47274;43.054;25.146;2023-02-19T06:26:23;13.52;;;6.00;;
61407;SDS011;47274;43.054;25.146;2023-02-19T06:28:50;11.50;;;5.40;;
61407;SDS011;47274;43.054;25.146;2023-02-19T06:31:18;11.48;;;5.65;;
61407;SDS011;47274;43.054;25.146;2023-02-19T06:33:45;11.73;;;5.40;;
61407;SDS011;47274;43.054;25.146;2023-02-19T06:36:12;9.90;;;4.97;;
61407;SDS011;47274;43.054;25.146;2023-02-19T06:38:40;11.20;;;5.05;;
61407;SDS011;47274;43.054;25.146;2023-02-19T06:41:08;13.05;;;6.25;;
61407;SDS011;47274;43.054;25.146;2023-02-19T06:43:37;11.65;;;5.30;;
61407;SDS011;47274;43.054;25.146;2023-02-19T06:46:04;10.13;;;5.00;;
61407;SDS011;47274;43.054;25.146;2023-02-19T06:48:34;10.80;;;5.38;;
61407;SDS011;47274;43.054;25.146;2023-02-19T06:51:02;10.73;;;4.97;;
61407;SDS011;47274;43.054;25.146;2023-02-19T06:53:28;10.98;;;4.85;;
61407;SDS011;47274;43.054;25.146;2023-02-19T06:56:03;15.05;;;5.20;;
61407;SDS011;47274;43.054;25.146;2023-02-19T06:58:46;10.00;;;5.07;;
61407;SDS011;47274;43.054;25.146;2023-02-19T07:01:12;9.93;;;4.75;;
61407;SDS011;47274;43.054;25.146;2023-02-19T07:03:44;9.45;;;4.68;;
61407;SDS011;47274;43.054;25.146;2023-02-19T07:06:12;10.50;;;4.55;;
61407;SDS011;47274;43.054;25.146;2023-02-19T07:08:38;9.13;;;4.70;;
61407;SDS011;47274;43.054;25.146;2023-02-19T07:11:04;11.00;;;4.45;;
61407;SDS011;47274;43.054;25.146;2023-02-19T07:13:29;9.57;;;4.65;;
61407;SDS011;47274;43.054;25.146;2023-02-19T07:16:03;9.65;;;4.80;;
61407;SDS011;47274;43.054;25.146;2023-02-19T07:18:33;9.93;;;4.63;;
61407;SDS011;47274;43.054;25.146;2023-02-19T07:21:03;9.20;;;4.03;;
61407;SDS011;47274;43.054;25.146;2023-02-19T07:23:30;7.55;;;4.50;;
61407;SDS011;47274;43.054;25.146;2023-02-19T07:25:57;8.43;;;4.03;;
61407;SDS011;47274;43.054;25.146;2023-02-19T07:28:24;9.52;;;4.60;;
61407;SDS011;47274;43.054;25.146;2023-02-19T07:30:51;9.60;;;4.18;;
61407;SDS011;47274;43.054;25.146;2023-02-19T07:33:18;12.40;;;4.63;;
61407;SDS011;47274;43.054;25.146;2023-02-19T07:35:47;7.05;;;4.00;;
61407;SDS011;47274;43.054;25.146;2023-02-19T07:38:19;7.82;;;4.28;;
61407;SDS011;47274;43.054;25.146;2023-02-19T07:40:51;7.35;;;3.95;;
61407;SDS011;47274;43.054;25.146;2023-02-19T07:43:18;9.10;;;4.28;;
61407;SDS011;47274;43.054;25.146;2023-02-19T07:45:46;7.10;;;4.05;;
61407;SDS011;47274;43.054;25.146;2023-02-19T07:48:13;6.95;;;3.78;;
61407;SDS011;47274;43.054;25.146;2023-02-19T07:50:40;12.75;;;5.18;;
61407;SDS011;47274;43.054;25.146;2023-02-19T07:53:06;9.27;;;4.85;;
61407;SDS011;47274;43.054;25.146;2023-02-19T07:55:33;20.92;;;9.02;;
61407;SDS011;47274;43.054;25.146;2023-02-19T07:57:59;10.48;;;5.13;;
61407;SDS011;47274;43.054;25.146;2023-02-19T08:00:26;11.43;;;5.90;;
61407;SDS011;47274;43.054;25.146;2023-02-19T08:02:53;8.98;;;4.60;;
61407;SDS011;47274;43.054;25.146;2023-02-19T08:05:29;10.45;;;5.13;;
61407;SDS011;47274;43.054;25.146;2023-02-19T08:07:58;9.85;;;4.22;;
61407;SDS011;47274;43.054;25.146;2023-02-19T08:10:25;6.70;;;3.60;;
61407;SDS011;47274;43.054;25.146;2023-02-19T08:13:11;8.25;;;4.00;;
61407;SDS011;47274;43.054;25.146;2023-02-19T08:15:45;7.30;;;3.70;;
61407;SDS011;47274;43.054;25.146;2023-02-19T08:18:14;6.25;;;3.80;;
61407;SDS011;47274;43.054;25.146;2023-02-19T08:20:42;7.80;;;4.03;;
61407;SDS011;47274;43.054;25.146;2023-02-19T08:23:09;5.88;;;3.70;;
61407;SDS011;47274;43.054;25.146;2023-02-19T08:25:39;7.25;;;3.70;;
61407;SDS011;47274;43.054;25.146;2023-02-19T08:28:05;8.73;;;4.00;;
61407;SDS011;47274;43.054;25.146;2023-02-19T08:30:33;10.48;;;4.55;;
61407;SDS011;47274;43.054;25.146;2023-02-19T08:33:00;8.20;;;3.85;;
61407;SDS011;47274;43.054;25.146;2023-02-19T08:35:27;7.72;;;3.25;;
61407;SDS011;47274;43.054;25.146;2023-02-19T08:37:54;6.88;;;3.45;;
61407;SDS011;47274;43.054;25.146;2023-02-19T08:40:24;5.47;;;3.67;;
61407;SDS011;47274;43.054;25.146;2023-02-19T08:42:50;6.93;;;3.50;;
61407;SDS011;47274;43.054;25.146;2023-02-19T08:45:18;6.30;;;3.95;;
61407;SDS011;47274;43.054;25.146;2023-02-19T08:47:46;5.90;;;3.53;;
61407;SDS011;47274;43.054;25.146;2023-02-19T08:50:13;6.50;;;3.65;;
61407;SDS011;47274;43.054;25.146;2023-02-19T08:52:41;9.90;;;4.25;;
61407;SDS011;47274;43.054;25.146;2023-02-19T08:55:09;6.18;;;3.03;;
61407;SDS011;47274;43.054;25.146;2023-02-19T08:57:36;4.82;;;2.90;;
61407;SDS011;47274;43.054;25.146;2023-02-19T09:00:04;6.18;;;3.70;;
61407;SDS011;47274;43.054;25.146;2023-02-19T09:02:32;7.28;;;3.47;;
61407;SDS011;47274;43.054;25.146;2023-02-19T09:04:59;4.55;;;3.17;;
61407;SDS011;47274;43.054;25.146;2023-02-19T09:07:26;4.88;;;3.30;;
61407;SDS011;47274;43.054;25.146;2023-02-19T09:09:53;6.20;;;3.28;;
61407;SDS011;47274;43.054;25.146;2023-02-19T09:12:19;7.68;;;4.35;;
61407;SDS011;47274;43.054;25.146;2023-02-19T09:14:46;9.48;;;4.28;;
61407;SDS011;47274;43.054;25.146;2023-02-19T09:17:12;7.43;;;3.88;;
61407;SDS011;47274;43.054;25.146;2023-02-19T09:19:38;7.35;;;3.65;;
61407;SDS011;47274;43.054;25.146;2023-02-19T09:22:04;6.25;;;3.70;;
61407;SDS011;47274;43.054;25.146;2023-02-19T09:24:30;8.95;;;4.13;;
61407;SDS011;47274;43.054;25.146;2023-02-19T09:26:58;4.70;;;3.20;;
61407;SDS011;47274;43.054;25.146;2023-02-19T09:29:24;7.03;;;3.75;;
61407;SDS011;47274;43.054;25.146;2023-02-19T09:31:58;4.90;;;3.17;;
61407;SDS011;47274;43.054;25.146;2023-02-19T09:34:26;6.85;;;3.80;;
61407;SDS011;47274;43.054;25.146;2023-02-19T09:36:53;6.72;;;3.00;;
61407;SDS011;47274;43.054;25.146;2023-02-19T09:39:20;6.88;;;3.30;;
61407;SDS011;47274;43.054;25.146;2023-02-19T09:41:48;5.35;;;2.97;;
61407;SDS011;47274;43.054;25.146;2023-02-19T09:44:34;4.53;;;2.72;;
61407;SDS011;47274;43.054;25.146;2023-02-19T09:47:05;5.43;;;3.00;;
61407;SDS011;47274;43.054;25.146;2023-02-19T09:49:40;10.30;;;4.10;;
61407;SDS011;47274;43.054;25.146;2023-02-19T09:52:17;4.75;;;2.90;;
61407;SDS011;47274;43.054;25.146;2023-02-19T09:54:53;6.70;;;3.10;;
61407;SDS011;47274;43.054;25.146;2023-02-19T09:57:23;4.32;;;2.60;;
61407;SDS011;47274;43.054;25.146;2023-02-19T10:02:30;3.85;;;2.55;;
61407;SDS011;47274;43.054;25.146;2023-02-19T10:04:59;4.20;;;2.70;;
61407;SDS011;47274;43.054;25.146;2023-02-19T10:07:36;3.47;;;2.55;;
61407;SDS011;47274;43.054;25.146;2023-02-19T10:12:40;6.38;;;3.58;;
61407;SDS011;47274;43.054;25.146;2023-02-19T10:15:28;6.80;;;3.87;;
61407;SDS011;47274;43.054;25.146;2023-02-19T10:18:01;6.82;;;3.40;;
61407;SDS011;47274;43.054;25.146;2023-02-19T10:20:31;4.68;;;3.10;;
61407;SDS011;47274;43.054;25.146;2023-02-19T10:23:05;5.68;;;2.90;;
61407;SDS011;47274;43.054;25.146;2023-02-19T10:25:34;5.45;;;3.42;;
61407;SDS011;47274;43.054;25.146;2023-02-19T10:28:12;4.70;;;2.72;;
61407;SDS011;47274;43.054;25.146;2023-02-19T10:30:41;2.85;;;2.40;;
61407;SDS011;47274;43.054;25.146;2023-02-19T10:33:10;5.72;;;2.88;;
61407;SDS011;47274;43.054;25.146;2023-02-19T10:35:52;6.50;;;3.28;;
61407;SDS011;47274;43.054;25.146;2023-02-19T10:38:24;10.52;;;3.75;;
61407;SDS011;47274;43.054;25.146;2023-02-19T10:43:36;2.25;;;2.05;;
61407;SDS011;47274;43.054;25.146;2023-02-19T10:46:16;5.90;;;2.30;;
61407;SDS011;47274;43.054;25.146;2023-02-19T10:54:14;4.65;;;2.83;;
61407;SDS011;47274;43.054;25.146;2023-02-19T10:56:53;4.93;;;2.50;;
61407;SDS011;47274;43.054;25.146;2023-02-19T10:59:23;2.70;;;2.05;;
61407;SDS011;47274;43.054;25.146;2023-02-19T11:02:07;2.58;;;2.10;;
61407;SDS011;47274;43.054;25.146;2023-02-19T11:04:41;4.85;;;2.60;;
61407;SDS011;47274;43.054;25.146;2023-02-19T11:10:46;4.53;;;2.95;;
61407;SDS011;47274;43.054;25.146;2023-02-19T11:13:12;5.03;;;2.70;;
61407;SDS011;47274;43.054;25.146;2023-02-19T11:15:40;3.42;;;2.65;;
61407;SDS011;47274;43.054;25.146;2023-02-19T11:23:26;5.55;;;3.13;;
61407;SDS011;47274;43.054;25.146;2023-02-19T11:26:18;6.80;;;3.20;;
61407;SDS011;47274;43.054;25.146;2023-02-19T11:28:59;4.22;;;2.60;;
61407;SDS011;47274;43.054;25.146;2023-02-19T11:31:28;4.30;;;2.70;;
61407;SDS011;47274;43.054;25.146;2023-02-19T11:34:01;4.38;;;2.60;;
61407;SDS011;47274;43.054;25.146;2023-02-19T11:36:28;3.80;;;2.58;;
61407;SDS011;47274;43.054;25.146;2023-02-19T11:41:51;3.40;;;2.50;;
61407;SDS011;47274;43.054;25.146;2023-02-19T11:50:21;6.50;;;3.38;;
61407;SDS011;47274;43.054;25.146;2023-02-19T11:52:53;5.45;;;2.80;;
61407;SDS011;47274;43.054;25.146;2023-02-19T12:00:50;5.93;;;3.47;;
61407;SDS011;47274;43.054;25.146;2023-02-19T12:03:28;3.22;;;2.38;;
61407;SDS011;47274;43.054;25.146;2023-02-19T12:12:29;4.55;;;3.08;;
61407;SDS011;47274;43.054;25.146;2023-02-19T12:20:50;3.77;;;2.30;;
61407;SDS011;47274;43.054;25.146;2023-02-19T12:23:48;6.10;;;2.75;;
61407;SDS011;47274;43.054;25.146;2023-02-19T12:26:41;3.17;;;2.58;;
61407;SDS011;47274;43.054;25.146;2023-02-19T12:43:20;2.03;;;1.80;;
61407;SDS011;47274;43.054;25.146;2023-02-19T12:53:48;2.92;;;2.13;;
61407;SDS011;47274;43.054;25.146;2023-02-19T12:56:37;2.85;;;2.45;;
61407;SDS011;47274;43.054;25.146;2023-02-19T13:05:21;4.22;;;2.72;;
61407;SDS011;47274;43.054;25.146;2023-02-19T13:08:06;6.68;;;3.60;;
61407;SDS011;47274;43.054;25.146;2023-02-19T13:13:29;22.48;;;10.15;;
61407;SDS011;47274;43.054;25.146;2023-02-19T13:16:10;10.15;;;4.72;;
61407;SDS011;47274;43.054;25.146;2023-02-19T13:18:45;14.18;;;5.72;;
61407;SDS011;47274;43.054;25.146;2023-02-19T13:21:14;13.88;;;6.28;;
61407;SDS011;47274;43.054;25.146;2023-02-19T13:24:10;17.02;;;7.35;;
61407;SDS011;47274;43.054;25.146;2023-02-19T13:27:15;17.17;;;6.88;;
61407;SDS011;47274;43.054;25.146;2023-02-19T13:33:00;14.10;;;5.65;;
61407;SDS011;47274;43.054;25.146;2023-02-19T13:35:49;13.73;;;5.82;;
61407;SDS011;47274;43.054;25.146;2023-02-19T13:38:20;12.80;;;5.50;;
61407;SDS011;47274;43.054;25.146;2023-02-19T13:40:55;9.52;;;4.65;;
61407;SDS011;47274;43.054;25.146;2023-02-19T13:43:34;7.00;;;3.97;;
61407;SDS011;47274;43.054;25.146;2023-02-19T13:46:09;8.05;;;3.00;;
61407;SDS011;47274;43.054;25.146;2023-02-19T13:48:39;5.07;;;3.22;;
61407;SDS011;47274;43.054;25.146;2023-02-19T13:59:12;6.82;;;3.03;;
61407;SDS011;47274;43.054;25.146;2023-02-19T14:04:45;2.85;;;2.50;;
61407;SDS011;47274;43.054;25.146;2023-02-19T14:14:40;5.40;;;2.40;;
61407;SDS011;47274;43.054;25.146;2023-02-19T14:20:38;6.43;;;3.00;;
61407;SDS011;47274;43.054;25.146;2023-02-19T14:23:23;5.60;;;2.90;;
61407;SDS011;47274;43.054;25.146;2023-02-19T14:25:56;7.13;;;2.70;;
61407;SDS011;47274;43.054;25.146;2023-02-19T14:31:23;4.50;;;2.80;;
61407;SDS011;47274;43.054;25.146;2023-02-19T14:33:59;3.63;;;2.70;;
61407;SDS011;47274;43.054;25.146;2023-02-19T14:36:47;5.40;;;3.30;;
61407;SDS011;47274;43.054;25.146;2023-02-19T14:39:52;4.97;;;3.40;;
61407;SDS011;47274;43.054;25.146;2023-02-19T14:42:30;4.28;;;3.10;;
61407;SDS011;47274;43.054;25.146;2023-02-19T14:45:02;3.92;;;2.55;;
61407;SDS011;47274;43.054;25.146;2023-02-19T14:47:35;2.83;;;2.60;;
61407;SDS011;47274;43.054;25.146;2023-02-19T14:50:04;6.47;;;3.53;;
61407;SDS011;47274;43.054;25.146;2023-02-19T14:52:34;3.55;;;2.42;;
61407;SDS011;47274;43.054;25.146;2023-02-19T14:55:13;3.97;;;2.50;;
61407;SDS011;47274;43.054;25.146;2023-02-19T14:57:44;4.22;;;2.53;;
61407;SDS011;47274;43.054;25.146;2023-02-19T15:03:48;6.20;;;3.20;;
61407;SDS011;47274;43.054;25.146;2023-02-19T15:06:13;5.82;;;3.22;;
61407;SDS011;47274;43.054;25.146;2023-02-19T15:08:44;7.63;;;3.40;;
61407;SDS011;47274;43.054;25.146;2023-02-19T15:11:19;7.18;;;3.10;;
61407;SDS011;47274;43.054;25.146;2023-02-19T15:13:55;3.83;;;2.78;;
61407;SDS011;47274;43.054;25.146;2023-02-19T15:16:33;4.22;;;2.92;;
61407;SDS011;47274;43.054;25.146;2023-02-19T15:19:03;5.05;;;2.95;;
61407;SDS011;47274;43.054;25.146;2023-02-19T15:21:32;8.13;;;3.33;;
61407;SDS011;47274;43.054;25.146;2023-02-19T15:24:03;11.55;;;5.20;;
61407;SDS011;47274;43.054;25.146;2023-02-19T15:26:36;14.05;;;5.55;;
61407;SDS011;47274;43.054;25.146;2023-02-19T15:29:12;8.70;;;3.95;;
61407;SDS011;47274;43.054;25.146;2023-02-19T15:31:46;7.40;;;3.70;;
61407;SDS011;47274;43.054;25.146;2023-02-19T15:34:24;6.68;;;3.45;;
61407;SDS011;47274;43.054;25.146;2023-02-19T15:37:01;9.60;;;4.10;;
61407;SDS011;47274;43.054;25.146;2023-02-19T15:39:36;7.70;;;4.05;;
61407;SDS011;47274;43.054;25.146;2023-02-19T15:42:08;7.18;;;3.92;;
61407;SDS011;47274;43.054;25.146;2023-02-19T15:44:58;9.95;;;4.78;;
61407;SDS011;47274;43.054;25.146;2023-02-19T15:47:34;16.08;;;6.60;;
61407;SDS011;47274;43.054;25.146;2023-02-19T15:50:43;19.20;;;8.82;;
61407;SDS011;47274;43.054;25.146;2023-02-19T15:53:34;15.55;;;8.15;;
61407;SDS011;47274;43.054;25.146;2023-02-19T15:56:21;14.98;;;7.28;;
61407;SDS011;47274;43.054;25.146;2023-02-19T15:59:06;12.25;;;5.30;;
61407;SDS011;47274;43.054;25.146;2023-02-19T16:01:47;11.27;;;5.40;;
61407;SDS011;47274;43.054;25.146;2023-02-19T16:04:17;15.32;;;7.00;;
61407;SDS011;47274;43.054;25.146;2023-02-19T16:06:57;14.55;;;6.60;;
61407;SDS011;47274;43.054;25.146;2023-02-19T16:12:18;14.15;;;6.20;;
61407;SDS011;47274;43.054;25.146;2023-02-19T16:14:46;14.35;;;5.95;;
61407;SDS011;47274;43.054;25.146;2023-02-19T16:17:18;14.05;;;6.10;;
61407;SDS011;47274;43.054;25.146;2023-02-19T16:19:54;11.50;;;5.93;;
61407;SDS011;47274;43.054;25.146;2023-02-19T16:22:26;12.20;;;5.28;;
61407;SDS011;47274;43.054;25.146;2023-02-19T16:25:00;8.25;;;4.32;;
61407;SDS011;47274;43.054;25.146;2023-02-19T16:27:43;9.23;;;4.70;;
61407;SDS011;47274;43.054;25.146;2023-02-19T16:35:52;7.68;;;4.05;;
61407;SDS011;47274;43.054;25.146;2023-02-19T16:38:19;5.72;;;3.40;;
61407;SDS011;47274;43.054;25.146;2023-02-19T16:41:03;7.13;;;3.85;;
61407;SDS011;47274;43.054;25.146;2023-02-19T16:43:41;8.73;;;4.00;;
61407;SDS011;47274;43.054;25.146;2023-02-19T16:46:09;12.88;;;5.72;;
61407;SDS011;47274;43.054;25.146;2023-02-19T16:48:37;11.27;;;5.22;;
61407;SDS011;47274;43.054;25.146;2023-02-19T16:51:04;12.02;;;4.88;;
61407;SDS011;47274;43.054;25.146;2023-02-19T16:53:31;29.90;;;13.10;;
61407;SDS011;47274;43.054;25.146;2023-02-19T16:56:01;13.10;;;5.80;;
61407;SDS011;47274;43.054;25.146;2023-02-19T16:58:27;12.23;;;5.00;;
61407;SDS011;47274;43.054;25.146;2023-02-19T17:00:54;9.70;;;4.53;;
61407;SDS011;47274;43.054;25.146;2023-02-19T17:03:21;11.15;;;4.82;;
61407;SDS011;47274;43.054;25.146;2023-02-19T17:05:49;9.60;;;4.68;;
61407;SDS011;47274;43.054;25.146;2023-02-19T17:08:31;8.95;;;4.22;;
61407;SDS011;47274;43.054;25.146;2023-02-19T17:10:59;9.52;;;4.05;;
61407;SDS011;47274;43.054;25.146;2023-02-19T17:13:27;8.60;;;4.22;;
61407;SDS011;47274;43.054;25.146;2023-02-19T17:15:57;6.78;;;3.88;;
61407;SDS011;47274;43.054;25.146;2023-02-19T17:18:25;8.48;;;4.15;;
61407;SDS011;47274;43.054;25.146;2023-02-19T17:21:00;7.97;;;4.05;;
61407;SDS011;47274;43.054;25.146;2023-02-19T17:23:34;9.45;;;4.43;;
61407;SDS011;47274;43.054;25.146;2023-02-19T17:26:01;6.95;;;3.90;;
61407;SDS011;47274;43.054;25.146;2023-02-19T17:28:30;5.68;;;3.67;;
61407;SDS011;47274;43.054;25.146;2023-02-19T17:30:58;8.95;;;4.18;;
61407;SDS011;47274;43.054;25.146;2023-02-19T17:33:28;9.48;;;4.20;;
61407;SDS011;47274;43.054;25.146;2023-02-19T17:35:55;8.77;;;4.28;;
61407;SDS011;47274;43.054;25.146;2023-02-19T17:38:21;11.05;;;5.05;;
61407;SDS011;47274;43.054;25.146;2023-02-19T17:40:51;8.27;;;4.20;;